Time;durP1;ratioP1;P1;durP2;ratioP2;P2;SDS_P1;SDS_P2;PMS_P1;PMS_P2;Temp;Humidity;BMP_temperature;BMP_pressure;BME280_temperature;BME280_humidity;BME280_pressure;Samples;Min_cycle;Max_cycle;Signal;HPM_P1;HPM_P2
2022/11/19 00:01:05;;;;;;;7.20;6.60;;;-5.50;71.50;;;;;;4980424;28;20526;-54
2022/11/19 00:03:34;;;;;;;6.57;5.30;;;-5.50;67.80;;;;;;4989301;28;20511;-54
2022/11/19 00:06:04;;;;;;;6.70;6.00;;;-5.50;69.50;;;;;;4983881;28;20467;-54
2022/11/19 00:08:31;;;;;;;8.20;7.40;;;-5.50;67.60;;;;;;4988788;28;20807;-54
2022/11/19 00:11:04;;;;;;;7.63;6.93;;;-5.50;69.60;;;;;;4980732;28;20473;-55
2022/11/19 00:13:32;;;;;;;8.23;7.43;;;-5.60;74.70;;;;;;4983064;28;20465;-54
2022/11/19 00:16:03;;;;;;;6.80;6.10;;;-5.60;78.50;;;;;;4986560;28;20555;-54
2022/11/19 00:18:29;;;;;;;7.37;6.00;;;-5.70;79.50;;;;;;4984869;28;20563;-54
2022/11/19 00:21:01;;;;;;;7.10;5.97;;;-5.80;77.20;;;;;;4988531;28;20464;-54
2022/11/19 00:23:28;;;;;;;8.77;7.70;;;-5.70;73.10;;;;;;4998332;28;20456;-54
2022/11/19 00:25:55;;;;;;;12.87;9.80;;;-5.70;74.80;;;;;;4994295;28;20554;-53
2022/11/19 00:28:22;;;;;;;18.10;10.93;;;-5.70;72.90;;;;;;4989121;28;20527;-54
2022/11/19 00:30:50;;;;;;;13.23;9.93;;;-5.70;69.60;;;;;;4987006;28;20484;-55
2022/11/19 00:33:16;;;;;;;16.10;10.30;;;-5.70;68.50;;;;;;4977981;28;20518;-54
2022/11/19 00:35:43;;;;;;;12.33;10.17;;;-5.80;71.70;;;;;;4987580;28;20528;-55
2022/11/19 00:38:10;;;;;;;17.40;11.80;;;-5.80;69.20;;;;;;4985543;28;20996;-54
2022/11/19 00:40:36;;;;;;;17.30;11.77;;;-5.80;72.70;;;;;;4982629;28;20484;-53
2022/11/19 00:45:47;;;;;;;12.50;10.17;;;-5.90;72.40;;;;;;4982548;28;21333;-53
2022/11/19 00:48:15;;;;;;;16.47;11.50;;;-5.90;74.00;;;;;;4977161;28;20540;-55
2022/11/19 00:50:42;;;;;;;17.70;13.40;;;-5.90;76.20;;;;;;4987250;28;20543;-54
2022/11/19 00:53:09;;;;;;;18.87;11.00;;;-5.90;77.40;;;;;;4987898;28;20461;-53
2022/11/19 00:55:37;;;;;;;16.90;12.20;;;-5.90;75.60;;;;;;4982131;28;20592;-54
2022/11/19 00:58:04;;;;;;;16.40;11.03;;;-6.00;77.40;;;;;;4977473;28;20845;-54
2022/11/19 01:00:30;;;;;;;13.03;9.83;;;-6.00;77.40;;;;;;4982695;28;20512;-55
2022/11/19 01:02:58;;;;;;;14.50;11.10;;;-5.90;70.80;;;;;;4986502;28;20472;-54
2022/11/19 01:05:26;;;;;;;14.83;11.13;;;-5.90;72.70;;;;;;4985607;28;20668;-54
2022/11/19 01:07:52;;;;;;;16.47;11.00;;;-5.90;69.70;;;;;;4985780;28;20872;-54
2022/11/19 01:10:19;;;;;;;15.63;10.70;;;-5.90;72.60;;;;;;4985284;28;20554;-54
2022/11/19 01:15:26;;;;;;;16.57;11.93;;;-6.00;76.70;;;;;;4981921;28;20573;-55
2022/11/19 01:20:21;;;;;;;17.00;12.10;;;-5.90;76.90;;;;;;4958709;28;20504;-54
2022/11/19 01:22:49;;;;;;;17.57;12.20;;;-6.00;81.10;;;;;;4964536;28;20528;-56
2022/11/19 01:25:16;;;;;;;14.90;10.80;;;-6.00;83.40;;;;;;4968608;28;20465;-54
2022/11/19 01:27:43;;;;;;;16.90;12.17;;;-6.10;84.60;;;;;;4969271;28;20473;-55
2022/11/19 01:30:10;;;;;;;20.43;13.13;;;-6.10;83.60;;;;;;4966754;28;20489;-54
2022/11/19 01:32:37;;;;;;;18.57;13.40;;;-6.00;79.00;;;;;;4968437;28;20512;-54
2022/11/19 01:35:05;;;;;;;15.13;12.10;;;-6.10;82.20;;;;;;4966329;28;20464;-54
2022/11/19 01:37:31;;;;;;;18.47;11.57;;;-6.00;79.40;;;;;;4961921;28;20500;-54
2022/11/19 01:39:59;;;;;;;17.23;11.60;;;-6.10;77.90;;;;;;4966894;28;20922;-56
2022/11/19 01:45:30;;;;;;;15.73;11.27;;;-6.00;72.20;;;;;;4968403;28;20441;-54
2022/11/19 01:48:00;;;;;;;12.40;10.40;;;-6.10;77.10;;;;;;4964840;28;20525;-54
2022/11/19 01:50:30;;;;;;;13.30;10.77;;;-6.20;75.50;;;;;;4972076;28;20881;-55
2022/11/19 01:52:57;;;;;;;14.57;12.20;;;-6.10;72.00;;;;;;4959933;28;20454;-54
2022/11/19 01:55:26;;;;;;;15.20;10.13;;;-6.10;72.20;;;;;;4968325;28;20461;-54
2022/11/19 01:57:56;;;;;;;16.50;11.77;;;-6.00;68.60;;;;;;4969537;28;21069;-54
2022/11/19 02:00:23;;;;;;;15.17;11.80;;;-6.10;77.70;;;;;;4965402;28;20458;-55
2022/11/19 02:02:50;;;;;;;14.47;10.13;;;-6.20;80.80;;;;;;4967901;28;20509;-53
2022/11/19 02:05:17;;;;;;;18.90;11.20;;;-6.10;77.20;;;;;;4969679;28;20951;-54
2022/11/19 02:07:49;;;;;;;14.17;10.93;;;-6.10;79.10;;;;;;4964950;28;20504;-54
2022/11/19 02:10:15;;;;;;;14.77;10.47;;;-6.20;83.80;;;;;;4967888;28;20553;-54
2022/11/19 02:12:54;;;;;;;13.33;9.80;;;-6.20;87.20;;;;;;4966000;28;20873;-54
2022/11/19 02:15:28;;;;;;;11.23;10.03;;;-6.30;90.50;;;;;;4973259;28;20524;-56
2022/11/19 02:18:07;;;;;;;13.63;10.70;;;-6.30;91.30;;;;;;4974446;28;20489;-55
2022/11/19 02:20:55;;;;;;;12.70;10.07;;;-6.40;92.30;;;;;;4971816;28;20457;-54
2022/11/19 02:23:50;;;;;;;12.67;10.60;;;-6.30;89.40;;;;;;4969953;28;20486;-54
2022/11/19 02:26:54;;;;;;;10.30;9.20;;;-6.40;93.60;;;;;;4965248;28;20491;-54
2022/11/19 02:29:54;;;;;;;12.90;8.83;;;-6.40;91.60;;;;;;4967053;28;20540;-54
2022/11/19 02:32:28;;;;;;;11.13;8.83;;;-6.40;86.60;;;;;;4965431;28;21104;-55
2022/11/19 02:34:58;;;;;;;14.10;10.50;;;-6.40;85.20;;;;;;4970705;28;20474;-54
2022/11/19 02:37:30;;;;;;;12.60;9.93;;;-6.30;81.20;;;;;;4968492;28;20543;-55
2022/11/19 02:40:01;;;;;;;11.33;10.20;;;-6.20;82.50;;;;;;4969251;28;21085;-54
2022/11/19 02:42:32;;;;;;;15.33;10.40;;;-6.30;83.70;;;;;;4966299;28;21023;-54
2022/11/19 02:45:06;;;;;;;15.60;11.53;;;-6.30;85.50;;;;;;4973265;28;20457;-54
2022/11/19 02:47:40;;;;;;;12.57;10.53;;;-6.30;86.20;;;;;;4964447;28;20461;-53
2022/11/19 02:50:10;;;;;;;13.20;10.57;;;-6.40;87.00;;;;;;4972062;28;20536;-53
2022/11/19 02:52:38;;;;;;;13.10;10.63;;;-6.30;80.60;;;;;;4965867;28;20963;-54
2022/11/19 02:55:05;;;;;;;14.47;11.20;;;-6.30;80.30;;;;;;4968808;28;20465;-55
2022/11/19 02:57:32;;;;;;;15.17;11.57;;;-6.40;85.40;;;;;;4968585;28;20543;-54
2022/11/19 03:05:41;;;;;;;14.50;11.40;;;-6.30;85.80;;;;;;4971459;28;20556;-55
2022/11/19 03:08:08;;;;;;;17.10;12.10;;;-6.40;96.40;;;;;;4971267;28;20871;-55
2022/11/19 03:10:45;;;;;;;16.20;11.67;;;-6.50;99.30;;;;;;4978984;28;20472;-54
2022/11/19 03:18:59;;;;;;;15.43;12.77;;;-6.30;84.20;;;;;;4969962;28;20597;-54
2022/11/19 03:21:33;;;;;;;27.33;14.50;;;-6.40;92.00;;;;;;4967646;28;20964;-55
2022/11/19 03:24:02;;;;;;;20.80;13.50;;;-6.40;97.40;;;;;;4971685;28;21170;-55
2022/11/19 03:26:34;;;;;;;18.60;14.10;;;-6.50;98.00;;;;;;4969798;28;20461;-55
2022/11/19 03:29:03;;;;;;;21.30;14.23;;;-6.40;90.60;;;;;;4968581;28;20548;-54
2022/11/19 03:31:32;;;;;;;19.50;13.43;;;-6.40;90.60;;;;;;4966320;28;20802;-54
2022/11/19 03:34:03;;;;;;;18.93;14.13;;;-6.50;97.30;;;;;;4969374;28;20469;-53
2022/11/19 03:36:34;;;;;;;16.40;12.73;;;-6.50;99.80;;;;;;4969928;28;20462;-55
2022/11/19 03:39:05;;;;;;;18.10;13.10;;;-6.50;98.10;;;;;;4968309;28;21011;-53
2022/11/19 03:41:35;;;;;;;18.10;13.03;;;-6.50;99.90;;;;;;4971013;28;20516;-54
2022/11/19 03:44:08;;;;;;;17.70;13.63;;;-6.50;95.10;;;;;;4968631;28;20585;-54
2022/11/19 03:46:38;;;;;;;16.70;13.50;;;-6.40;86.80;;;;;;4972252;28;20512;-54
2022/11/19 03:49:09;;;;;;;16.23;12.07;;;-6.50;92.30;;;;;;4965363;28;20572;-55
2022/11/19 03:51:41;;;;;;;17.27;13.03;;;-6.50;96.00;;;;;;4969046;28;20465;-54
2022/11/19 03:54:08;;;;;;;19.90;13.00;;;-6.50;95.80;;;;;;4968363;28;20469;-54
2022/11/19 03:56:39;;;;;;;17.70;13.17;;;-6.50;92.50;;;;;;4968495;28;20514;-56
2022/11/19 03:59:06;;;;;;;20.83;13.50;;;-6.50;93.30;;;;;;4970093;28;20548;-55
2022/11/19 04:01:34;;;;;;;15.03;13.13;;;-6.40;90.30;;;;;;4967387;28;20488;-55
2022/11/19 04:06:46;;;;;;;18.27;13.07;;;-6.40;87.50;;;;;;4968735;28;20619;-53
2022/11/19 04:09:12;;;;;;;16.10;13.43;;;-6.40;89.60;;;;;;4963221;28;20482;-54
2022/11/19 04:11:40;;;;;;;17.77;12.77;;;-6.40;88.90;;;;;;4968140;28;20524;-54
2022/11/19 04:14:06;;;;;;;19.17;12.30;;;-6.40;86.30;;;;;;4971913;28;20473;-53
2022/11/19 04:16:33;;;;;;;15.40;11.90;;;-6.40;85.40;;;;;;4958621;28;20524;-54
2022/11/19 04:19:00;;;;;;;15.80;11.77;;;-6.40;83.90;;;;;;4966930;28;20501;-55
2022/11/19 04:21:27;;;;;;;14.80;11.40;;;-6.40;87.50;;;;;;4961131;28;20527;-55
2022/11/19 04:23:54;;;;;;;15.60;12.23;;;-6.40;89.90;;;;;;4964879;28;20537;-55
2022/11/19 04:26:21;;;;;;;19.10;12.60;;;-6.50;90.20;;;;;;4968546;28;20461;-53
2022/11/19 04:28:47;;;;;;;13.07;11.67;;;-6.50;91.30;;;;;;4968618;28;21065;-54
2022/11/19 04:31:14;;;;;;;18.23;13.00;;;-6.50;95.30;;;;;;4968893;28;20465;-54
2022/11/19 04:33:40;;;;;;;17.23;12.60;;;-6.50;95.50;;;;;;4968973;28;20492;-55
2022/11/19 04:36:08;;;;;;;22.40;16.73;;;-6.50;97.10;;;;;;4966347;28;20462;-54
2022/11/19 04:38:36;;;;;;;18.00;14.37;;;-6.50;92.70;;;;;;4966889;28;20489;-53
2022/11/19 04:41:02;;;;;;;19.77;15.17;;;-6.40;87.90;;;;;;4962164;28;20524;-54
2022/11/19 04:43:29;;;;;;;19.13;13.40;;;-6.40;90.70;;;;;;4969591;28;20519;-55
2022/11/19 04:45:55;;;;;;;27.20;17.00;;;-6.40;91.10;;;;;;4966344;28;20465;-54
2022/11/19 04:48:22;;;;;;;27.73;18.63;;;-6.40;87.50;;;;;;4963527;28;20477;-55
2022/11/19 04:50:48;;;;;;;27.87;16.90;;;-6.30;88.00;;;;;;4967560;28;20516;-54
2022/11/19 04:53:15;;;;;;;25.30;16.80;;;-6.40;91.80;;;;;;4966764;28;20465;-55
2022/11/19 04:55:43;;;;;;;23.73;15.93;;;-6.40;90.60;;;;;;4966886;28;20514;-55
2022/11/19 04:58:10;;;;;;;22.10;14.60;;;-6.30;90.60;;;;;;4968032;28;21006;-54
2022/11/19 05:00:37;;;;;;;17.90;13.63;;;-6.40;91.40;;;;;;4962172;28;20469;-54
2022/11/19 05:03:03;;;;;;;18.27;13.13;;;-6.40;92.00;;;;;;4974393;28;20466;-54
2022/11/19 05:05:30;;;;;;;20.27;13.67;;;-6.40;94.50;;;;;;4963660;28;20465;-56
2022/11/19 05:07:57;;;;;;;21.90;14.10;;;-6.40;96.40;;;;;;4965765;28;20461;-54
2022/11/19 05:10:23;;;;;;;19.53;15.03;;;-6.30;90.60;;;;;;4969640;28;20963;-55
2022/11/19 05:12:51;;;;;;;16.10;12.30;;;-6.30;95.50;;;;;;4958827;28;20513;-54
2022/11/19 05:15:18;;;;;;;18.00;12.53;;;-6.30;95.20;;;;;;4963746;28;20533;-55
2022/11/19 05:17:44;;;;;;;16.33;12.77;;;-6.30;90.40;;;;;;4963469;28;20480;-54
2022/11/19 05:20:11;;;;;;;20.30;12.90;;;-6.20;86.30;;;;;;4971586;28;21026;-54
2022/11/19 05:22:38;;;;;;;15.80;12.00;;;-6.20;90.50;;;;;;4965451;28;20493;-54
2022/11/19 05:25:05;;;;;;;16.97;12.00;;;-6.20;90.30;;;;;;4963973;28;20516;-53
2022/11/19 05:27:32;;;;;;;13.70;10.47;;;-6.20;96.40;;;;;;4969144;28;20466;-54
2022/11/19 05:30:00;;;;;;;14.90;11.47;;;-6.20;92.00;;;;;;4970090;28;20493;-53
2022/11/19 05:32:26;;;;;;;17.40;12.37;;;-6.20;91.40;;;;;;4963492;28;20465;-53
2022/11/19 05:34:54;;;;;;;19.20;12.77;;;-6.20;95.30;;;;;;4957711;28;20462;-55
2022/11/19 05:37:20;;;;;;;16.50;11.33;;;-6.20;94.70;;;;;;4969570;28;20512;-55
2022/11/19 05:39:47;;;;;;;14.30;10.90;;;-6.20;97.70;;;;;;4963550;28;20485;-55
2022/11/19 05:42:13;;;;;;;14.07;10.27;;;-6.30;97.70;;;;;;4974558;28;20513;-54
2022/11/19 05:44:40;;;;;;;14.50;10.50;;;-6.30;93.70;;;;;;4972470;28;20967;-56
2022/11/19 05:47:08;;;;;;;10.10;8.80;;;-6.30;93.60;;;;;;4964917;28;20462;-54
2022/11/19 05:49:34;;;;;;;12.03;9.63;;;-6.30;93.40;;;;;;4971893;28;20603;-56
2022/11/19 05:52:01;;;;;;;12.37;10.20;;;-6.30;92.10;;;;;;4971081;28;20465;-54
2022/11/19 05:54:27;;;;;;;9.77;8.87;;;-6.30;93.40;;;;;;4971717;28;20967;-54
2022/11/19 05:56:54;;;;;;;11.40;9.93;;;-6.30;96.40;;;;;;4971173;28;20465;-55
2022/11/19 05:59:21;;;;;;;15.30;10.30;;;-6.40;98.20;;;;;;4967585;28;20489;-55
2022/11/19 06:01:47;;;;;;;12.07;9.73;;;-6.40;99.90;;;;;;4968933;28;20462;-55
2022/11/19 06:04:15;;;;;;;12.20;9.83;;;-6.40;99.90;;;;;;4975928;28;20955;-54
2022/11/19 06:06:42;;;;;;;13.63;9.10;;;-6.40;99.90;;;;;;4969021;28;20556;-55
2022/11/19 06:09:08;;;;;;;14.33;9.87;;;-6.40;97.70;;;;;;4973787;28;20485;-53
2022/11/19 06:11:47;;;;;;;10.33;9.00;;;-6.40;94.10;;;;;;4970882;28;20829;-54
2022/11/19 06:14:14;;;;;;;11.60;9.50;;;-6.30;94.30;;;;;;4973417;28;20465;-54
2022/11/19 06:16:40;;;;;;;12.17;8.60;;;-6.30;94.50;;;;;;4973257;28;20512;-54
2022/11/19 06:19:07;;;;;;;10.90;9.07;;;-6.20;93.70;;;;;;4972173;28;20493;-54
2022/11/19 06:21:35;;;;;;;11.17;9.80;;;-6.20;93.50;;;;;;4972788;28;20462;-55
2022/11/19 06:24:01;;;;;;;8.33;7.50;;;-6.30;94.30;;;;;;4977170;28;21079;-55
2022/11/19 06:26:29;;;;;;;10.47;8.57;;;-6.40;91.60;;;;;;4966218;28;20473;-55
2022/11/19 06:28:56;;;;;;;10.60;8.90;;;-6.30;86.50;;;;;;4971331;28;20469;-55
2022/11/19 06:31:23;;;;;;;10.13;9.13;;;-6.20;82.20;;;;;;4969502;28;21037;-54
2022/11/19 06:33:52;;;;;;;12.27;10.17;;;-6.20;76.90;;;;;;4974311;28;20484;-54
2022/11/19 06:36:18;;;;;;;9.57;8.67;;;-6.10;76.00;;;;;;4969402;28;20461;-54
2022/11/19 06:38:46;;;;;;;11.47;9.33;;;-6.00;75.00;;;;;;4965016;28;20488;-54
2022/11/19 06:41:13;;;;;;;10.90;9.50;;;-6.00;76.10;;;;;;4968829;28;20469;-54
2022/11/19 06:43:40;;;;;;;12.43;9.73;;;-6.00;79.30;;;;;;4970632;28;20465;-55
2022/11/19 06:46:07;;;;;;;11.33;8.30;;;-6.00;81.90;;;;;;4972079;28;20830;-54
2022/11/19 06:48:33;;;;;;;11.77;8.50;;;-6.00;86.90;;;;;;4965166;28;20507;-54
2022/11/19 06:51:01;;;;;;;11.17;9.30;;;-6.00;88.10;;;;;;4968491;28;20531;-55
2022/11/19 06:53:27;;;;;;;12.90;10.10;;;-6.00;87.40;;;;;;4971575;28;20543;-54
2022/11/19 06:56:00;;;;;;;17.73;9.90;;;-5.90;84.30;;;;;;4967628;28;20461;-55
2022/11/19 06:58:27;;;;;;;12.80;10.40;;;-5.80;81.50;;;;;;4968177;28;20559;-54
2022/11/19 07:00:54;;;;;;;10.30;9.18;;;-5.80;81.00;;;;;;4967065;28;20458;-56
2022/11/19 07:03:21;;;;;;;10.90;9.73;;;-5.80;80.30;;;;;;4967868;28;20688;-55
2022/11/19 07:05:48;;;;;;;13.17;10.20;;;-5.70;81.50;;;;;;4965034;28;20469;-54
2022/11/19 07:08:15;;;;;;;13.30;9.80;;;-5.50;80.50;;;;;;4966107;28;20602;-52
2022/11/19 07:10:41;;;;;;;10.80;9.10;;;-5.40;77.70;;;;;;4969554;28;20469;-52
2022/11/19 07:13:09;;;;;;;14.30;11.30;;;-5.20;76.70;;;;;;4976694;28;20461;-51
2022/11/19 07:15:37;;;;;;;14.37;10.30;;;-5.00;76.10;;;;;;4969469;28;20508;-52
2022/11/19 07:18:03;;;;;;;13.70;11.60;;;-4.90;77.30;;;;;;4970193;28;20830;-53
2022/11/19 07:20:30;;;;;;;12.90;11.00;;;-4.80;77.40;;;;;;4992363;23;20488;-52
2022/11/19 07:22:57;;;;;;;12.70;11.13;;;-4.60;76.50;;;;;;4991908;28;20523;-54
2022/11/19 07:25:23;;;;;;;11.13;9.70;;;-4.50;76.40;;;;;;4984795;28;20470;-53
2022/11/19 07:27:50;;;;;;;11.00;9.90;;;-4.50;77.30;;;;;;4986866;28;20480;-53
2022/11/19 07:30:18;;;;;;;10.70;9.67;;;-4.30;75.20;;;;;;4974797;28;20494;-53
2022/11/19 07:32:45;;;;;;;13.80;9.70;;;-4.10;72.90;;;;;;4972274;28;20456;-53
2022/11/19 07:35:12;;;;;;;11.37;9.10;;;-4.00;70.80;;;;;;4971419;28;20950;-55
2022/11/19 07:37:39;;;;;;;11.13;9.17;;;-3.80;71.20;;;;;;4969434;28;20465;-53
2022/11/19 07:40:06;;;;;;;10.73;8.90;;;-3.80;74.70;;;;;;4969631;28;20529;-50
2022/11/19 07:42:51;;;;;;;11.53;8.93;;;-3.70;76.00;;;;;;4961894;28;20458;-49
2022/11/19 07:45:22;;;;;;;11.97;9.10;;;-3.70;77.90;;;;;;4972522;28;20509;-55
2022/11/19 07:47:48;;;;;;;15.70;9.93;;;-3.50;79.70;;;;;;4964731;28;20462;-52
2022/11/19 07:50:16;;;;;;;9.60;8.30;;;-3.40;77.00;;;;;;4970198;28;20477;-53
2022/11/19 07:52:43;;;;;;;10.03;8.93;;;-3.40;79.70;;;;;;4961755;28;20906;-53
2022/11/19 07:55:10;;;;;;;8.80;7.97;;;-3.30;82.60;;;;;;4970431;28;20455;-53
2022/11/19 07:57:37;;;;;;;7.90;7.10;;;-3.30;85.70;;;;;;4962303;28;20798;-53
2022/11/19 08:00:05;;;;;;;9.53;7.90;;;-3.30;85.90;;;;;;4969285;28;20489;-53
2022/11/19 08:02:33;;;;;;;11.53;7.80;;;-3.10;85.20;;;;;;4966129;28;20466;-52
2022/11/19 08:05:00;;;;;;;7.60;6.90;;;-3.10;84.50;;;;;;4963786;28;20476;-53
2022/11/19 08:07:26;;;;;;;7.27;6.53;;;-3.00;85.40;;;;;;4968782;28;20461;-54
2022/11/19 08:09:53;;;;;;;10.93;7.40;;;-3.00;84.30;;;;;;4973085;28;20474;-53
2022/11/19 08:12:20;;;;;;;8.53;6.90;;;-2.90;82.20;;;;;;4964411;28;20460;-53
2022/11/19 08:14:46;;;;;;;9.77;7.40;;;-2.80;89.20;;;;;;4962616;28;20474;-52
2022/11/19 08:19:58;;;;;;;8.13;5.63;;;-2.70;86.20;;;;;;4968304;28;20481;-53
2022/11/19 08:22:25;;;;;;;7.57;6.77;;;-2.60;88.30;;;;;;4969393;28;20532;-50
2022/11/19 08:24:52;;;;;;;8.33;7.10;;;-2.60;86.90;;;;;;4968998;28;20469;-50
2022/11/19 08:27:18;;;;;;;9.00;7.50;;;-2.60;88.70;;;;;;4965070;28;20468;-50
2022/11/19 08:29:45;;;;;;;9.70;7.37;;;-2.60;91.40;;;;;;4966217;28;20902;-50
2022/11/19 08:32:11;;;;;;;13.50;7.03;;;-2.60;87.00;;;;;;4962672;28;20521;-50
2022/11/19 08:34:38;;;;;;;9.37;7.17;;;-2.50;85.50;;;;;;4968186;28;21006;-51
2022/11/19 08:37:06;;;;;;;9.33;7.53;;;-2.40;85.10;;;;;;4972314;28;20465;-50
2022/11/19 08:39:33;;;;;;;11.37;7.20;;;-2.40;88.40;;;;;;4967515;28;20531;-50
2022/11/19 08:44:44;;;;;;;8.50;7.20;;;-2.30;87.90;;;;;;4966533;28;20449;-50
2022/11/19 08:47:10;;;;;;;10.87;7.03;;;-2.20;88.60;;;;;;4964188;28;20470;-49
2022/11/19 08:49:37;;;;;;;7.80;7.00;;;-2.10;87.00;;;;;;4959158;28;20506;-49
2022/11/19 08:52:04;;;;;;;8.83;7.50;;;-2.00;87.90;;;;;;4962266;28;20506;-51
2022/11/19 08:54:32;;;;;;;8.17;6.80;;;-2.10;89.80;;;;;;4959774;28;20462;-51
2022/11/19 08:56:59;;;;;;;10.80;8.33;;;-2.00;87.30;;;;;;4960591;28;20465;-50
2022/11/19 08:59:25;;;;;;;8.67;6.33;;;-2.00;92.60;;;;;;4963478;28;20485;-51
2022/11/19 09:01:52;;;;;;;10.77;7.80;;;-1.90;86.00;;;;;;4956366;28;21026;-50
2022/11/19 09:04:19;;;;;;;7.70;6.10;;;-1.90;88.00;;;;;;4965212;28;20466;-53
2022/11/19 09:06:45;;;;;;;10.03;7.37;;;-1.80;88.90;;;;;;4960089;28;20465;-50
2022/11/19 09:09:12;;;;;;;10.07;7.03;;;-1.70;89.50;;;;;;4968909;28;20462;-50
2022/11/19 09:11:40;;;;;;;7.70;6.90;;;-1.60;90.60;;;;;;4972182;28;20468;-51
2022/11/19 09:14:06;;;;;;;9.37;8.30;;;-1.70;99.90;;;;;;4970622;28;20470;-50
2022/11/19 09:16:33;;;;;;;8.70;7.43;;;-1.50;93.40;;;;;;4968099;28;20465;-50
2022/11/19 09:19:01;;;;;;;9.70;7.47;;;-1.50;93.90;;;;;;4967520;28;21021;-51
2022/11/19 09:21:27;;;;;;;10.17;8.03;;;-1.40;99.90;;;;;;4972192;28;20955;-52
2022/11/19 09:23:54;;;;;;;9.07;8.07;;;-1.40;99.90;;;;;;4968097;28;20544;-50
2022/11/19 09:26:20;;;;;;;10.10;8.10;;;-1.30;99.90;;;;;;4966730;28;20461;-50
2022/11/19 09:28:49;;;;;;;9.77;8.77;;;-1.20;99.90;;;;;;4963865;28;20458;-50
2022/11/19 09:31:18;;;;;;;10.77;7.60;;;-1.00;99.90;;;;;;4952333;28;20487;-59
2022/11/19 09:33:47;;;;;;;9.07;6.80;;;-0.90;99.90;;;;;;4957404;28;20463;-58
2022/11/19 09:36:14;;;;;;;9.13;7.87;;;-0.80;99.90;;;;;;4974453;28;20598;-51
2022/11/19 09:38:43;;;;;;;10.40;7.57;;;-0.70;99.90;;;;;;4959055;28;23142;-53
2022/11/19 09:41:25;;;;;;;8.20;7.10;;;-0.60;99.90;;;;;;4966968;28;21012;-55
2022/11/19 09:44:04;;;;;;;9.20;6.73;;;-0.60;99.90;;;;;;4965194;28;21038;-60
2022/11/19 09:46:39;;;;;;;7.53;6.80;;;-0.60;99.90;;;;;;4970044;28;20597;-51
2022/11/19 09:49:10;;;;;;;8.60;6.60;;;-0.60;99.90;;;;;;4964165;28;20524;-53
2022/11/19 09:51:42;;;;;;;6.50;5.97;;;-0.50;99.90;;;;;;4970299;28;20453;-51
2022/11/19 09:54:14;;;;;;;9.60;6.50;;;-0.40;99.90;;;;;;4973960;28;20452;-51
2022/11/19 09:56:43;;;;;;;6.90;6.30;;;-0.40;99.90;;;;;;4970822;28;20462;-54
2022/11/19 09:59:23;;;;;;;6.13;5.23;;;-0.30;99.90;;;;;;4967071;28;20502;-51
2022/11/19 10:01:49;;;;;;;6.20;5.60;;;-0.30;99.90;;;;;;4959223;28;20466;-51
2022/11/19 10:04:19;;;;;;;5.73;5.13;;;-0.30;99.90;;;;;;4963884;28;20462;-52
2022/11/19 10:06:54;;;;;;;5.57;5.00;;;-0.20;99.90;;;;;;4968567;28;20512;-51
2022/11/19 10:09:35;;;;;;;5.97;5.47;;;-0.20;99.90;;;;;;4963596;28;20463;-51
2022/11/19 10:12:11;;;;;;;5.00;4.60;;;-0.20;99.90;;;;;;4964250;28;20472;-52
2022/11/19 10:14:53;;;;;;;5.60;5.10;;;0.00;99.90;;;;;;4959204;28;20453;-49
2022/11/19 10:17:31;;;;;;;6.77;5.93;;;0.10;99.90;;;;;;4960299;28;20476;-53
2022/11/19 10:20:12;;;;;;;5.30;4.90;;;0.20;99.90;;;;;;4958379;28;21033;-50
2022/11/19 10:22:46;;;;;;;5.50;5.00;;;0.10;99.90;;;;;;4963426;28;20460;-51
2022/11/19 10:25:17;;;;;;;5.97;5.33;;;0.20;99.90;;;;;;4958894;28;20877;-51
2022/11/19 10:27:48;;;;;;;6.93;6.27;;;0.30;99.90;;;;;;4965647;28;20517;-50
2022/11/19 10:30:19;;;;;;;7.53;6.00;;;0.30;99.90;;;;;;4965417;28;20478;-50
2022/11/19 10:32:55;;;;;;;5.67;5.17;;;0.40;99.90;;;;;;4970007;28;20547;-50
2022/11/19 10:35:27;;;;;;;5.20;4.70;;;0.50;99.90;;;;;;4964371;28;20501;-51
2022/11/19 10:37:58;;;;;;;6.00;5.50;;;0.50;99.90;;;;;;4964474;28;20513;-50
2022/11/19 10:40:27;;;;;;;4.90;4.23;;;0.50;99.90;;;;;;4965731;28;20568;-50
2022/11/19 10:43:00;;;;;;;6.03;5.37;;;0.50;99.90;;;;;;4967889;28;20967;-48
2022/11/19 10:45:29;;;;;;;5.03;4.43;;;0.60;99.90;;;;;;4966817;28;20465;-51
2022/11/19 10:48:04;;;;;;;7.13;5.43;;;0.70;99.90;;;;;;4967409;28;20835;-51
2022/11/19 10:50:30;;;;;;;8.80;7.40;;;0.70;99.90;;;;;;4968516;28;20873;-51
2022/11/19 10:53:00;;;;;;;17.70;11.77;;;0.80;99.90;;;;;;4961263;28;20461;-49
2022/11/19 10:55:32;;;;;;;9.43;8.27;;;0.80;1.40;;;;;;4966021;28;20517;-49
2022/11/19 10:58:08;;;;;;;6.30;5.70;;;0.80;99.90;;;;;;4969058;28;20513;-50
2022/11/19 11:00:37;;;;;;;8.87;6.53;;;0.90;99.90;;;;;;4966049;28;20492;-50
2022/11/19 11:03:13;;;;;;;9.67;8.03;;;0.90;99.90;;;;;;4973238;28;20466;-51
2022/11/19 11:05:55;;;;;;;6.50;5.90;;;0.90;99.90;;;;;;4965763;28;20465;-50
2022/11/19 11:08:22;;;;;;;6.50;5.30;;;1.10;99.90;;;;;;4969034;28;20473;-51
2022/11/19 11:10:50;;;;;;;5.90;5.40;;;1.40;99.90;;;;;;4961979;28;20481;-50
2022/11/19 11:16:25;;;;;;;6.23;5.63;;;1.90;99.90;;;;;;4964532;28;20582;-49
2022/11/19 11:18:56;;;;;;;9.73;4.17;;;2.70;99.90;;;;;;4969570;28;20480;-50
2022/11/19 11:21:35;;;;;;;8.67;7.00;;;2.80;99.90;;;;;;4964014;28;20501;-49
2022/11/19 11:24:03;;;;;;;6.67;6.07;;;2.30;99.90;;;;;;4972064;28;20461;-49
2022/11/19 11:26:32;;;;;;;6.10;5.30;;;2.40;99.90;;;;;;4971580;28;20596;-50
2022/11/19 11:29:04;;;;;;;5.50;5.00;;;2.50;99.90;;;;;;4964148;28;20532;-57
2022/11/19 11:31:35;;;;;;;6.70;4.47;;;2.70;99.90;;;;;;4973141;28;20509;-56
2022/11/19 11:34:04;;;;;;;5.17;4.67;;;2.60;99.90;;;;;;4973863;28;20504;-56
2022/11/19 11:36:33;;;;;;;5.80;5.30;;;2.80;99.90;;;;;;4973426;28;20524;-55
2022/11/19 11:39:02;;;;;;;5.97;5.03;;;2.70;99.90;;;;;;4968615;28;20525;-56
2022/11/19 11:41:38;;;;;;;5.93;5.33;;;2.60;99.90;;;;;;4964028;28;20852;-57
2022/11/19 11:44:07;;;;;;;7.37;5.90;;;2.40;99.90;;;;;;4960278;28;20465;-57
2022/11/19 11:46:42;;;;;;;4.97;4.57;;;2.40;99.90;;;;;;4969178;28;20481;-57
2022/11/19 11:49:24;;;;;;;5.73;5.17;;;2.40;99.90;;;;;;4965975;28;20531;-55
2022/11/19 11:52:05;;;;;;;23.13;10.90;;;2.30;99.90;;;;;;4970302;28;20461;-56
2022/11/19 11:54:32;;;;;;;8.90;7.17;;;2.30;99.90;;;;;;4965011;28;20812;-56
2022/11/19 11:57:15;;;;;;;8.03;6.40;;;2.30;99.90;;;;;;4958639;28;20465;-56
2022/11/19 11:59:42;;;;;;;9.40;7.33;;;2.20;99.90;;;;;;4966761;28;20493;-57
2022/11/19 12:02:20;;;;;;;6.80;6.10;;;2.10;99.90;;;;;;4963240;28;20915;-57
2022/11/19 12:04:46;;;;;;;12.07;8.43;;;2.00;99.90;;;;;;4969990;28;20461;-56
2022/11/19 12:07:22;;;;;;;9.33;6.67;;;2.00;99.90;;;;;;4959992;28;20465;-55
2022/11/19 12:10:02;;;;;;;6.37;5.83;;;1.90;99.90;;;;;;4961013;28;20497;-56
2022/11/19 12:12:37;;;;;;;8.17;5.33;;;2.00;99.90;;;;;;4961299;28;20461;-57
2022/11/19 12:15:16;;;;;;;9.03;7.23;;;2.10;99.90;;;;;;4960721;28;20472;-56
2022/11/19 12:17:49;;;;;;;5.83;5.33;;;2.00;99.90;;;;;;4959599;28;20972;-56
2022/11/19 12:20:23;;;;;;;9.37;7.43;;;2.00;99.90;;;;;;4967125;28;20489;-56
2022/11/19 12:23:03;;;;;;;6.47;5.90;;;2.10;99.90;;;;;;4965092;28;20461;-56
2022/11/19 12:25:34;;;;;;;6.13;5.53;;;2.10;99.90;;;;;;4970243;28;20955;-55
2022/11/19 12:28:25;;;;;;;7.37;6.37;;;2.00;99.90;;;;;;4971449;28;20462;-55
2022/11/19 12:31:02;;;;;;;8.03;5.93;;;2.00;99.90;;;;;;4965465;28;20532;-55
2022/11/19 12:33:44;;;;;;;6.13;4.93;;;2.00;99.90;;;;;;4968189;28;20511;-56
2022/11/19 12:36:21;;;;;;;5.33;4.83;;;2.00;99.90;;;;;;4963870;28;20464;-54
2022/11/19 12:38:56;;;;;;;4.90;4.50;;;2.00;99.90;;;;;;4963595;28;20492;-55
2022/11/19 12:41:48;;;;;;;5.33;4.67;;;2.00;99.90;;;;;;4969102;28;20539;-54
2022/11/19 12:44:24;;;;;;;7.63;4.73;;;2.00;99.90;;;;;;4964360;28;21030;-54
2022/11/19 12:46:56;;;;;;;5.23;4.77;;;1.90;99.90;;;;;;4964882;28;20465;-55
2022/11/19 12:49:50;;;;;;;5.43;4.93;;;2.10;99.90;;;;;;4963900;28;20548;-54
2022/11/19 12:52:38;;;;;;;5.80;4.80;;;2.10;99.90;;;;;;4967298;28;20466;-55
2022/11/19 12:55:13;;;;;;;6.60;5.93;;;2.10;99.90;;;;;;4962159;28;20466;-55
2022/11/19 12:57:47;;;;;;;5.40;4.90;;;2.20;99.90;;;;;;4969291;28;20479;-55
2022/11/19 13:00:17;;;;;;;5.00;4.50;;;2.10;99.90;;;;;;4968930;28;20481;-55
2022/11/19 13:03:00;;;;;;;5.60;5.10;;;2.20;99.90;;;;;;4963011;28;20501;-53
2022/11/19 13:05:38;;;;;;;4.40;4.07;;;2.10;99.90;;;;;;4963818;28;20468;-54
2022/11/19 13:08:12;;;;;;;6.80;5.07;;;2.10;99.90;;;;;;4967662;28;20492;-54
2022/11/19 13:10:42;;;;;;;6.07;5.57;;;2.10;99.90;;;;;;4973169;28;20457;-53
2022/11/19 13:13:14;;;;;;;5.43;4.93;;;2.10;99.90;;;;;;4970315;28;21000;-54
2022/11/19 13:15:45;;;;;;;5.83;5.13;;;2.10;99.60;;;;;;4963349;28;20445;-52
2022/11/19 13:18:16;;;;;;;6.77;6.17;;;2.10;98.00;;;;;;4959440;28;20882;-53
2022/11/19 13:20:49;;;;;;;7.03;6.43;;;2.00;90.40;;;;;;4967168;28;20494;-52
2022/11/19 13:23:22;;;;;;;8.63;7.73;;;2.00;87.10;;;;;;4975177;28;20469;-54
2022/11/19 13:25:55;;;;;;;10.07;7.17;;;2.00;79.00;;;;;;4972604;28;20450;-52